createdAt,value
2022-12-23T00:00:11.192Z,41.03
2022-12-23T00:02:38.676Z,39.97
2022-12-23T00:05:06.375Z,40.97
2022-12-23T00:07:33.055Z,39.23
2022-12-23T00:09:59.651Z,44.67
2022-12-23T00:12:44.869Z,40.50
2022-12-23T00:15:12.563Z,38.30
2022-12-23T00:17:44.662Z,38.97
2022-12-23T00:20:13.943Z,38.83
2022-12-23T00:22:59.678Z,40.10
2022-12-23T00:25:42.114Z,43.23
2022-12-23T00:28:11.835Z,43.17
2022-12-23T00:30:47.857Z,41.23
2022-12-23T00:33:15.484Z,44.50
2022-12-23T00:35:43.510Z,44.67
2022-12-23T00:38:10.452Z,46.80
2022-12-23T00:40:55.562Z,42.00
2022-12-23T00:43:22.435Z,39.67
2022-12-23T00:45:49.018Z,42.37
2022-12-23T00:48:34.579Z,40.40
2022-12-23T00:51:01.135Z,43.37
2022-12-23T00:53:27.680Z,44.13
2022-12-23T00:55:54.281Z,43.10
2022-12-23T00:58:21.624Z,41.63
2022-12-23T01:01:07.293Z,45.67
2022-12-23T01:03:52.291Z,48.20
2022-12-23T01:06:18.962Z,53.17
2022-12-23T01:08:45.620Z,54.87
2022-12-23T01:11:12.879Z,54.60
2022-12-23T01:13:39.645Z,50.67
2022-12-23T01:16:14.971Z,57.57
2022-12-23T01:18:43.688Z,55.60
2022-12-23T01:21:10.888Z,49.97
2022-12-23T01:23:37.888Z,54.07
2022-12-23T01:26:06.224Z,51.77
2022-12-23T01:28:33.622Z,49.03
2022-12-23T01:31:01.552Z,51.00
2022-12-23T01:33:28.512Z,50.23
2022-12-23T01:36:06.717Z,50.00
2022-12-23T01:38:34.383Z,54.23
2022-12-23T01:41:01.128Z,48.40
2022-12-23T01:43:50.697Z,47.77
2022-12-23T01:46:18.592Z,44.40
2022-12-23T01:48:48.406Z,42.50
2022-12-23T01:51:27.660Z,35.57
2022-12-23T01:53:58.334Z,30.13
2022-12-23T01:56:31.071Z,25.30
2022-12-23T01:59:00.937Z,26.17
2022-12-23T02:01:46.905Z,29.83
2022-12-23T02:04:22.213Z,31.80
2022-12-23T02:07:08.185Z,33.40
2022-12-23T02:09:39.809Z,17.07
2022-12-23T02:12:25.221Z,24.37
2022-12-23T02:15:57.038Z,11.53
2022-12-23T02:18:58.002Z,6.73
2022-12-23T02:21:43.364Z,4.57
2022-12-23T02:24:34.865Z,3.90
2022-12-23T02:27:10.166Z,3.40
2022-12-23T02:29:49.045Z,3.47
2022-12-23T02:32:34.364Z,3.97
2022-12-23T02:35:09.623Z,10.07
2022-12-23T02:38:00.054Z,27.20
2022-12-23T02:40:26.710Z,27.80
2022-12-23T02:43:05.408Z,27.97
2022-12-23T02:45:41.516Z,27.97
2022-12-23T02:48:16.077Z,23.37
2022-12-23T02:50:44.054Z,25.83
2022-12-23T02:53:23.061Z,24.20
2022-12-23T02:55:50.639Z,19.97
2022-12-23T02:58:19.683Z,20.27
2022-12-23T03:00:46.972Z,20.03
2022-12-23T03:03:13.768Z,18.93
2022-12-23T03:05:43.829Z,16.17
2022-12-23T03:08:30.699Z,15.57
2022-12-23T03:11:14.973Z,15.60
2022-12-23T03:13:59.920Z,16.27
2022-12-23T03:16:57.883Z,21.50
2022-12-23T03:19:50.569Z,20.17
2022-12-23T03:22:34.482Z,13.90
2022-12-23T03:25:12.220Z,11.63
2022-12-23T03:28:15.149Z,12.43
2022-12-23T03:30:44.736Z,12.93
2022-12-23T03:33:17.187Z,16.30
2022-12-23T03:35:47.814Z,17.13
2022-12-23T03:38:15.375Z,16.63
2022-12-23T03:40:45.048Z,22.73
2022-12-23T03:43:18.955Z,20.60
2022-12-23T03:45:49.956Z,22.47
2022-12-23T03:48:19.681Z,19.33
2022-12-23T03:50:47.790Z,22.67
2022-12-23T03:53:20.239Z,22.93
2022-12-23T03:55:56.639Z,21.90
2022-12-23T03:58:41.772Z,20.20
2022-12-23T04:01:46.003Z,20.13
2022-12-23T04:04:21.296Z,19.13
2022-12-23T04:06:53.708Z,19.20
2022-12-23T04:09:22.538Z,20.57
2022-12-23T04:11:49.712Z,27.07
2022-12-23T04:14:20.620Z,30.83
2022-12-23T04:16:48.297Z,29.60
2022-12-23T04:19:15.327Z,34.23
2022-12-23T04:21:41.950Z,28.87
2022-12-23T04:24:08.792Z,33.80
2022-12-23T04:26:35.352Z,30.57
2022-12-23T04:29:01.911Z,21.07
2022-12-23T04:31:28.615Z,20.53
2022-12-23T04:33:55.561Z,18.47
2022-12-23T04:36:22.172Z,18.93
2022-12-23T04:38:48.846Z,17.33
2022-12-23T04:41:15.425Z,21.40
2022-12-23T04:43:41.990Z,24.10
2022-12-23T04:46:08.667Z,21.87
2022-12-23T04:48:35.961Z,20.43
2022-12-23T04:51:03.359Z,22.77
2022-12-23T04:53:30.090Z,24.77
2022-12-23T04:55:56.597Z,26.30
2022-12-23T04:58:25.077Z,24.67
2022-12-23T05:01:05.747Z,29.33
2022-12-23T05:03:32.789Z,34.40
2022-12-23T05:05:59.687Z,28.90
2022-12-23T05:08:26.400Z,28.60
2022-12-23T05:10:53.079Z,42.70
2022-12-23T05:13:19.752Z,58.77
2022-12-23T05:15:48.667Z,180.27
2022-12-23T05:18:15.633Z,97.80
2022-12-23T05:20:42.252Z,60.80
2022-12-23T05:23:09.189Z,51.13
2022-12-23T05:25:37.540Z,34.30
2022-12-23T05:28:05.604Z,40.70
2022-12-23T05:30:32.556Z,45.77
2022-12-23T05:32:59.163Z,45.43
2022-12-23T05:35:26.674Z,43.30
2022-12-23T05:37:53.585Z,41.87
2022-12-23T05:40:24.313Z,37.07
2022-12-23T05:42:53.623Z,42.23
2022-12-23T05:45:20.857Z,27.53
2022-12-23T05:47:47.508Z,25.67
2022-12-23T05:50:14.633Z,21.90
2022-12-23T05:52:41.209Z,23.80
2022-12-23T05:55:08.637Z,26.63
2022-12-23T05:57:35.234Z,25.47
2022-12-23T06:00:03.528Z,22.47
2022-12-23T06:02:30.215Z,23.67
2022-12-23T06:04:57.396Z,28.47
2022-12-23T06:07:23.974Z,33.77
2022-12-23T06:09:50.532Z,30.80
2022-12-23T06:12:17.182Z,32.40
2022-12-23T06:14:43.782Z,31.10
2022-12-23T06:17:10.354Z,30.83
2022-12-23T06:19:36.976Z,31.87
2022-12-23T06:22:03.588Z,29.83
2022-12-23T06:24:30.212Z,30.33
2022-12-23T06:26:57.594Z,29.13
2022-12-23T06:29:24.964Z,27.87
2022-12-23T06:31:51.722Z,30.30
2022-12-23T06:34:18.494Z,31.40
2022-12-23T06:36:54.442Z,33.49
2022-12-23T06:39:21.103Z,32.07
2022-12-23T06:41:47.708Z,34.17
2022-12-23T06:44:14.371Z,37.00
2022-12-23T06:46:40.993Z,38.30
2022-12-23T06:49:13.121Z,38.00
2022-12-23T06:51:40.544Z,37.20
2022-12-23T06:54:07.252Z,30.77
2022-12-23T06:56:34.317Z,34.57
2022-12-23T06:59:00.896Z,37.03
2022-12-23T07:01:27.571Z,40.43
2022-12-23T07:03:54.274Z,37.93
2022-12-23T07:06:20.940Z,39.50
2022-12-23T07:08:47.562Z,41.60
2022-12-23T07:11:14.220Z,39.57
2022-12-23T07:13:41.119Z,41.10
2022-12-23T07:16:08.715Z,56.57
2022-12-23T07:18:36.005Z,33.07
2022-12-23T07:21:03.701Z,32.80
2022-12-23T07:23:30.720Z,32.77
2022-12-23T07:25:57.384Z,37.40
2022-12-23T07:28:24.064Z,50.77
2022-12-23T07:30:50.848Z,44.30
2022-12-23T07:33:17.474Z,43.43
2022-12-23T07:35:44.031Z,46.27
2022-12-23T07:38:11.098Z,46.80
2022-12-23T07:40:37.750Z,44.13
2022-12-23T07:43:04.485Z,43.63
2022-12-23T07:45:31.265Z,34.70
2022-12-23T07:48:00.100Z,32.57
2022-12-23T07:50:27.429Z,28.35
2022-12-23T07:52:54.692Z,34.87
2022-12-23T07:55:21.653Z,36.03
2022-12-23T07:57:49.679Z,20.73
2022-12-23T08:00:16.922Z,21.20
2022-12-23T08:02:44.079Z,21.60
2022-12-23T08:05:11.753Z,33.23
2022-12-23T08:07:38.691Z,40.37
2022-12-23T08:10:06.743Z,37.57
2022-12-23T08:12:33.734Z,54.10
2022-12-23T08:15:00.402Z,39.73
2022-12-23T08:17:28.561Z,40.22
2022-12-23T08:19:55.640Z,39.93
2022-12-23T08:22:22.470Z,41.27
2022-12-23T08:24:49.138Z,36.20
2022-12-23T08:27:16.459Z,47.27
2022-12-23T08:29:43.170Z,45.00
2022-12-23T08:32:09.788Z,49.03
2022-12-23T08:34:36.575Z,43.10
2022-12-23T08:37:03.261Z,44.07
2022-12-23T08:39:29.921Z,40.33
2022-12-23T08:41:56.543Z,39.20
2022-12-23T08:44:23.186Z,35.10
2022-12-23T08:46:49.833Z,32.57
2022-12-23T08:49:16.498Z,35.13
2022-12-23T08:51:43.203Z,29.83
2022-12-23T08:54:10.300Z,31.40
2022-12-23T08:56:40.402Z,26.27
2022-12-23T08:59:09.337Z,29.90
2022-12-23T09:01:38.789Z,28.47
2022-12-23T09:04:06.568Z,27.10
2022-12-23T09:06:36.618Z,26.70
2022-12-23T09:09:04.674Z,20.80
2022-12-23T09:11:31.344Z,23.10
2022-12-23T09:13:59.352Z,22.10
2022-12-23T09:16:26.446Z,23.37
2022-12-23T09:18:53.436Z,22.67
2022-12-23T09:21:22.311Z,22.30
2022-12-23T09:23:49.314Z,20.70
2022-12-23T09:26:24.877Z,17.93
2022-12-23T09:28:51.926Z,17.60
2022-12-23T09:31:19.368Z,17.43
2022-12-23T09:33:50.922Z,19.10
2022-12-23T09:36:17.996Z,16.30
2022-12-23T09:38:44.581Z,13.87
2022-12-23T09:41:31.055Z,16.73
2022-12-23T09:44:23.520Z,13.93
2022-12-23T09:46:59.573Z,14.17
2022-12-23T09:49:26.360Z,15.20
2022-12-23T09:51:55.790Z,20.17
2022-12-23T09:54:24.699Z,20.70
2022-12-23T09:57:28.555Z,20.00
2022-12-23T10:00:17.337Z,15.27
2022-12-23T10:03:05.484Z,14.20
2022-12-23T10:05:58.676Z,14.87
2022-12-23T10:08:32.107Z,19.20
2022-12-23T10:11:05.071Z,21.83
2022-12-23T10:14:18.298Z,19.80
2022-12-23T10:16:47.308Z,23.60
2022-12-23T10:19:46.337Z,22.17
2022-12-23T10:22:24.774Z,19.57
2022-12-23T10:24:51.880Z,25.80
2022-12-23T10:27:27.464Z,26.80
2022-12-23T10:29:54.058Z,27.00
2022-12-23T10:32:48.537Z,23.57
2022-12-23T10:35:44.273Z,26.03
2022-12-23T10:38:17.016Z,27.03
2022-12-23T10:41:09.488Z,22.63
2022-12-23T10:43:55.773Z,23.77
2022-12-23T10:46:33.253Z,22.87
2022-12-23T10:49:30.634Z,36.13
2022-12-23T10:52:03.925Z,25.53
2022-12-23T10:54:35.341Z,25.77
2022-12-23T10:57:03.716Z,26.07
2022-12-23T10:59:34.955Z,30.57
2022-12-23T11:02:09.640Z,29.03
2022-12-23T11:04:37.721Z,32.07
2022-12-23T11:07:42.162Z,31.17
2022-12-23T11:09:53.330Z,38.93
2022-12-23T11:12:25.444Z,42.33
2022-12-23T11:14:57.148Z,32.90
2022-12-23T11:17:29.043Z,39.70
2022-12-23T11:20:10.704Z,40.67
2022-12-23T11:22:48.627Z,40.60
2022-12-23T11:25:18.414Z,25.33
2022-12-23T11:27:46.167Z,30.90
2022-12-23T11:30:19.691Z,39.47
2022-12-23T11:32:46.268Z,30.50
2022-12-23T11:35:28.767Z,34.17
2022-12-23T11:37:56.813Z,35.83
2022-12-23T11:40:36.402Z,26.40
2022-12-23T11:43:05.708Z,25.10
2022-12-23T11:45:37.332Z,16.50
2022-12-23T11:48:05.559Z,13.47
2022-12-23T11:50:40.486Z,12.67
2022-12-23T11:53:30.295Z,13.07
2022-12-23T11:56:05.338Z,13.87
2022-12-23T11:58:48.878Z,9.57
2022-12-23T12:01:20.994Z,8.67
2022-12-23T12:04:00.505Z,10.43
2022-12-23T12:06:27.975Z,13.40
2022-12-23T12:08:57.378Z,6.90
2022-12-23T12:11:27.628Z,7.47
2022-12-23T12:14:02.773Z,9.90
2022-12-23T12:16:54.123Z,10.40
2022-12-23T12:19:45.852Z,12.80
2022-12-23T12:22:16.668Z,12.77
2022-12-23T12:24:50.858Z,15.00
2022-12-23T12:27:17.719Z,18.33
2022-12-23T12:29:48.850Z,17.30
2022-12-23T12:32:31.753Z,16.40
2022-12-23T12:35:13.530Z,15.33
2022-12-23T12:37:45.863Z,16.50
2022-12-23T12:40:15.362Z,14.20
2022-12-23T12:42:49.368Z,14.27
2022-12-23T12:45:21.619Z,12.98
2022-12-23T12:48:02.357Z,14.23
2022-12-23T12:50:35.153Z,15.80
2022-12-23T12:53:08.633Z,17.33
2022-12-23T12:55:39.693Z,15.90
2022-12-23T12:58:14.411Z,19.80
2022-12-23T13:01:12.517Z,18.63
2022-12-23T13:04:03.975Z,15.07
2022-12-23T13:06:45.471Z,17.10
2022-12-23T13:09:30.452Z,16.00
2022-12-23T13:12:18.939Z,15.87
2022-12-23T13:15:03.805Z,19.07
2022-12-23T13:17:48.777Z,16.37
2022-12-23T13:20:30.458Z,19.13
2022-12-23T13:23:20.761Z,12.00
2022-12-23T13:25:59.165Z,21.83
2022-12-23T13:28:35.994Z,17.57
2022-12-23T13:32:00.967Z,21.37
2022-12-23T13:34:33.182Z,17.53
2022-12-23T13:37:02.646Z,20.77
2022-12-23T13:39:50.435Z,20.10
2022-12-23T13:42:27.357Z,16.33
2022-12-23T13:44:54.378Z,23.40
2022-12-23T13:47:39.818Z,21.43
2022-12-23T13:50:12.408Z,22.07
2022-12-23T13:52:54.352Z,19.90
2022-12-23T13:55:32.026Z,19.33
2022-12-23T13:58:22.149Z,22.73
2022-12-23T14:01:10.691Z,26.93
2022-12-23T14:03:38.794Z,26.80
2022-12-23T14:06:22.515Z,24.23
2022-12-23T14:08:49.812Z,25.07
2022-12-23T14:11:26.724Z,23.13
2022-12-23T14:13:57.603Z,70.07
2022-12-23T14:16:33.272Z,95.43
2022-12-23T14:19:18.624Z,61.00
2022-12-23T14:21:55.131Z,29.17
2022-12-23T14:24:45.416Z,39.93
2022-12-23T14:27:12.028Z,36.53
2022-12-23T14:30:12.783Z,38.00
2022-12-23T14:32:44.404Z,46.90
2022-12-23T14:35:22.117Z,39.37
2022-12-23T14:38:16.905Z,36.93
2022-12-23T14:40:43.666Z,34.77
2022-12-23T14:43:22.864Z,37.73
2022-12-23T14:45:53.720Z,35.43
2022-12-23T14:48:42.138Z,34.83
2022-12-23T14:51:09.651Z,36.35
2022-12-23T14:53:59.419Z,37.17
2022-12-23T14:56:42.058Z,34.87
2022-12-23T14:59:49.340Z,37.10
2022-12-23T15:02:16.033Z,38.23
2022-12-23T15:04:49.763Z,41.20
2022-12-23T15:07:19.290Z,53.20
2022-12-23T15:10:00.285Z,54.60
2022-12-23T15:12:36.857Z,48.33
2022-12-23T15:15:15.139Z,60.23
2022-12-23T15:17:41.847Z,59.20
2022-12-23T15:20:16.356Z,60.93
2022-12-23T15:22:44.856Z,58.67
2022-12-23T15:25:39.448Z,56.97
2022-12-23T15:28:06.253Z,62.87
2022-12-23T15:30:37.109Z,50.83
2022-12-23T15:33:21.871Z,40.67
2022-12-23T15:35:53.431Z,39.27
2022-12-23T15:38:20.785Z,52.60
2022-12-23T15:41:17.305Z,42.07
2022-12-23T15:43:44.419Z,43.87
2022-12-23T15:46:29.121Z,43.70
2022-12-23T15:48:57.183Z,40.33
2022-12-23T15:52:05.698Z,42.47
2022-12-23T15:54:34.746Z,41.87
2022-12-23T15:57:02.852Z,42.93
2022-12-23T15:59:32.871Z,43.83
2022-12-23T16:02:24.926Z,43.57
2022-12-23T16:04:54.924Z,38.33
2022-12-23T16:07:27.513Z,44.33
2022-12-23T16:09:55.033Z,42.30
2022-12-23T16:12:26.472Z,43.60
2022-12-23T16:15:00.597Z,86.30
2022-12-23T16:17:35.267Z,51.43
2022-12-23T16:20:20.657Z,36.93
2022-12-23T16:22:50.415Z,69.57
2022-12-23T16:25:27.612Z,73.73
2022-12-23T16:28:08.748Z,42.70
2022-12-23T16:30:38.061Z,38.03
2022-12-23T16:33:07.721Z,31.57
2022-12-23T16:35:38.791Z,68.33
2022-12-23T16:38:14.616Z,46.40
2022-12-23T16:40:41.918Z,31.57
2022-12-23T16:43:08.690Z,26.07
2022-12-23T16:45:36.661Z,36.17
2022-12-23T16:48:16.333Z,38.77
2022-12-23T16:50:43.149Z,30.07
2022-12-23T16:53:13.163Z,34.40
2022-12-23T16:55:46.220Z,33.13
2022-12-23T16:58:17.015Z,51.33
2022-12-23T17:00:43.803Z,26.40
2022-12-23T17:03:16.090Z,60.20
2022-12-23T17:05:43.088Z,62.57
2022-12-23T17:08:10.310Z,20.37
2022-12-23T17:10:37.979Z,22.97
2022-12-23T17:13:05.091Z,30.17
2022-12-23T17:15:31.959Z,21.13
2022-12-23T17:17:58.574Z,20.53
2022-12-23T17:20:25.208Z,22.87
2022-12-23T17:22:54.000Z,29.73
2022-12-23T17:25:26.313Z,28.75
2022-12-23T17:27:53.751Z,46.77
2022-12-23T17:30:24.499Z,61.73
2022-12-23T17:32:54.460Z,50.57
2022-12-23T17:35:21.630Z,37.77
2022-12-23T17:37:48.268Z,51.70
2022-12-23T17:40:15.844Z,66.50
2022-12-23T17:42:43.045Z,33.97
2022-12-23T17:45:25.949Z,47.57
2022-12-23T17:47:53.067Z,46.43
2022-12-23T17:50:21.064Z,60.67
2022-12-23T17:52:47.932Z,27.03
2022-12-23T17:55:18.221Z,34.77
2022-12-23T17:57:44.846Z,19.33
2022-12-23T18:00:12.773Z,38.33
2022-12-23T18:02:40.249Z,21.57
2022-12-23T18:05:19.306Z,47.97
2022-12-23T18:07:46.046Z,58.13
2022-12-23T18:10:14.418Z,52.23
2022-12-23T18:12:43.449Z,27.57
2022-12-23T18:15:37.662Z,53.57
2022-12-23T18:18:20.548Z,35.03
2022-12-23T18:20:55.363Z,35.37
2022-12-23T18:23:30.142Z,24.53
2022-12-23T18:25:57.361Z,18.77
2022-12-23T18:28:24.649Z,18.83
2022-12-23T18:30:52.815Z,14.87
2022-12-23T18:33:19.605Z,13.47
2022-12-23T18:35:48.540Z,20.17
2022-12-23T18:38:16.688Z,19.03
2022-12-23T18:40:44.292Z,17.37
2022-12-23T18:43:24.597Z,11.57
2022-12-23T18:45:53.767Z,16.17
2022-12-23T18:48:21.525Z,33.80
2022-12-23T18:50:48.460Z,22.13
2022-12-23T18:53:25.182Z,23.90
2022-12-23T18:55:53.201Z,24.10
2022-12-23T18:58:20.247Z,24.43
2022-12-23T19:00:47.900Z,17.80
2022-12-23T19:03:28.894Z,30.60
2022-12-23T19:05:56.044Z,42.10
2022-12-23T19:08:27.055Z,36.43
2022-12-23T19:10:55.755Z,27.43
2022-12-23T19:13:22.743Z,23.50
2022-12-23T19:15:49.841Z,31.27
2022-12-23T19:18:19.223Z,30.57
2022-12-23T19:20:46.686Z,31.50
2022-12-23T19:23:13.905Z,35.13
2022-12-23T19:25:42.011Z,31.80
2022-12-23T19:28:09.640Z,30.23
2022-12-23T19:30:36.901Z,28.57
2022-12-23T19:33:03.583Z,25.60
2022-12-23T19:35:30.220Z,19.67
2022-12-23T19:37:56.781Z,20.90
2022-12-23T19:40:23.396Z,23.03
2022-12-23T19:42:50.033Z,26.37
2022-12-23T19:45:17.201Z,27.67
2022-12-23T19:47:43.878Z,26.60
2022-12-23T19:50:11.639Z,13.20
2022-12-23T19:52:38.303Z,14.07
2022-12-23T19:55:05.391Z,14.67
2022-12-23T19:57:32.220Z,17.80
2022-12-23T19:59:58.915Z,14.43
2022-12-23T20:02:25.775Z,18.73
2022-12-23T20:04:52.473Z,23.37
2022-12-23T20:07:19.105Z,22.63
2022-12-23T20:09:45.700Z,23.83
2022-12-23T20:12:12.242Z,20.07
2022-12-23T20:14:38.903Z,23.40
2022-12-23T20:17:05.516Z,19.30
2022-12-23T20:19:32.640Z,21.20
2022-12-23T20:21:59.218Z,21.23
2022-12-23T20:24:25.865Z,20.17
2022-12-23T20:26:52.482Z,19.73
2022-12-23T20:29:19.131Z,18.77
2022-12-23T20:31:45.900Z,21.50
2022-12-23T20:34:16.666Z,20.97
2022-12-23T20:36:43.468Z,21.13
2022-12-23T20:39:10.080Z,17.10
2022-12-23T20:41:36.806Z,20.60
2022-12-23T20:46:51.078Z,50.17
2022-12-23T20:49:17.746Z,23.53
2022-12-23T20:51:44.332Z,18.00
2022-12-23T20:54:10.935Z,47.47
2022-12-23T20:56:37.641Z,43.17
2022-12-23T20:59:04.284Z,52.67
2022-12-23T21:01:32.132Z,82.43
2022-12-23T21:04:00.755Z,21.90
2022-12-23T21:06:28.372Z,32.67
2022-12-23T21:08:57.164Z,20.90
2022-12-23T21:11:24.090Z,30.93
2022-12-23T21:13:51.336Z,45.53
2022-12-23T21:16:18.324Z,90.47
2022-12-23T21:18:50.419Z,80.13
2022-12-23T21:21:17.150Z,79.07
2022-12-23T21:23:43.841Z,84.83
2022-12-23T21:26:19.468Z,49.40
2022-12-23T21:28:47.273Z,43.70
2022-12-23T21:31:15.806Z,40.60
2022-12-23T21:33:44.492Z,41.07
2022-12-23T21:36:18.014Z,35.00
2022-12-23T21:38:46.802Z,37.70
2022-12-23T21:41:16.012Z,33.83
2022-12-23T21:43:42.558Z,75.03
2022-12-23T21:46:12.506Z,139.53
2022-12-23T21:48:39.221Z,126.67
2022-12-23T21:51:13.305Z,88.97
2022-12-23T21:53:40.258Z,215.23
2022-12-23T21:56:09.228Z,41.27
2022-12-23T21:58:36.628Z,91.10
2022-12-23T22:01:16.793Z,108.53
2022-12-23T22:03:44.723Z,84.93
2022-12-23T22:06:16.267Z,53.03
2022-12-23T22:08:43.356Z,91.43
2022-12-23T22:11:13.041Z,77.43
2022-12-23T22:13:40.526Z,155.37
2022-12-23T22:16:14.708Z,88.33
2022-12-23T22:18:41.729Z,101.80
2022-12-23T22:21:13.757Z,82.57
2022-12-23T22:23:40.619Z,101.87
2022-12-23T22:26:07.794Z,132.03
2022-12-23T22:28:36.301Z,250.07
2022-12-23T22:31:04.223Z,59.40
2022-12-23T22:33:32.009Z,93.83
2022-12-23T22:35:58.696Z,67.27
2022-12-23T22:38:25.437Z,97.07
2022-12-23T22:40:52.637Z,62.13
2022-12-23T22:43:20.065Z,141.40
2022-12-23T22:45:46.964Z,51.83
2022-12-23T22:48:13.794Z,49.20
2022-12-23T22:50:40.446Z,51.20
2022-12-23T22:53:07.039Z,63.40
2022-12-23T22:55:33.612Z,32.90
2022-12-23T22:58:00.216Z,67.57
2022-12-23T23:00:26.869Z,70.77
2022-12-23T23:02:53.485Z,42.60
2022-12-23T23:05:20.440Z,48.67
2022-12-23T23:07:47.218Z,28.33
2022-12-23T23:10:14.993Z,30.37
2022-12-23T23:12:41.652Z,39.57
2022-12-23T23:15:08.807Z,43.97
2022-12-23T23:17:35.427Z,37.87
2022-12-23T23:20:02.235Z,47.13
2022-12-23T23:22:29.007Z,40.70
2022-12-23T23:24:55.565Z,31.27
2022-12-23T23:27:22.181Z,32.57
2022-12-23T23:29:48.764Z,33.43
2022-12-23T23:32:15.338Z,32.50
2022-12-23T23:34:42.321Z,30.33
2022-12-23T23:37:09.062Z,43.30
2022-12-23T23:39:35.639Z,35.73
2022-12-23T23:42:02.247Z,34.63
2022-12-23T23:44:28.817Z,31.90
2022-12-23T23:46:55.476Z,37.13
2022-12-23T23:49:22.910Z,35.90
2022-12-23T23:51:50.264Z,28.97
2022-12-23T23:54:17.043Z,29.50
2022-12-23T23:56:43.653Z,18.70
2022-12-23T23:59:10.323Z,28.93
